Time;durP1;ratioP1;P1;durP2;ratioP2;P2;SDS_P1;SDS_P2;PMS_P1;PMS_P2;Temp;Humidity;BMP_temperature;BMP_pressure;BME280_temperature;BME280_humidity;BME280_pressure;Samples;Min_cycle;Max_cycle;Signal;HPM_P1;HPM_P2
2023/09/09 06:18:02;;;;;;;1.20;0.80;;;24.10;90.00;;;;;;6447787;27;20640;-48
2023/09/09 06:21:04;;;;;;;2.95;1.10;;;24.10;76.30;;;;;;6423255;27;20042;-49
2023/09/09 06:24:07;;;;;;;0.88;0.88;;;24.20;76.40;;;;;;6429312;27;20033;-50
2023/09/09 06:27:09;;;;;;;2.75;1.10;;;24.40;76.00;;;;;;6418798;27;20113;-50
2023/09/09 06:30:14;;;;;;;2.10;1.45;;;24.50;75.70;;;;;;6421301;27;20506;-49
2023/09/09 06:33:16;;;;;;;1.27;1.17;;;24.50;75.20;;;;;;6421254;27;20419;-50
2023/09/09 06:36:20;;;;;;;1.50;1.40;;;24.30;74.50;;;;;;6421261;27;20043;-49
2023/09/09 06:39:21;;;;;;;1.00;0.90;;;24.70;74.70;;;;;;6422231;27;20038;-49
2023/09/09 06:42:25;;;;;;;1.23;1.13;;;24.50;74.20;;;;;;6426057;27;20034;-48
2023/09/09 06:45:31;;;;;;;1.10;1.00;;;24.80;73.70;;;;;;6424757;27;20396;-50
2023/09/09 06:48:33;;;;;;;1.58;1.27;;;24.90;73.20;;;;;;6421610;27;20041;-48
2023/09/09 06:51:34;;;;;;;1.35;1.25;;;24.70;73.60;;;;;;6417537;27;20038;-50
2023/09/09 06:54:36;;;;;;;1.20;1.10;;;25.10;73.20;;;;;;6418976;27;20034;-47
2023/09/09 06:57:37;;;;;;;1.33;1.20;;;24.70;72.70;;;;;;6413601;27;20494;-49
2023/09/09 07:00:42;;;;;;;1.50;1.10;;;24.70;72.60;;;;;;6395045;27;20608;-48
2023/09/09 07:03:44;;;;;;;0.95;0.90;;;25.10;73.00;;;;;;6400692;27;20242;-47
2023/09/09 07:06:45;;;;;;;1.20;1.10;;;25.10;72.40;;;;;;6405672;27;20525;-48
2023/09/09 07:10:09;;;;;;;1.05;0.95;;;24.70;72.10;;;;;;6412823;27;20463;-48
2023/09/09 07:13:12;;;;;;;1.08;1.00;;;25.20;72.30;;;;;;6407244;27;20060;-50
2023/09/09 07:16:13;;;;;;;1.02;0.90;;;25.20;72.20;;;;;;6408741;27;20046;-51
2023/09/09 07:19:16;;;;;;;1.30;1.20;;;25.20;72.10;;;;;;6410176;27;20605;-51
2023/09/09 07:22:17;;;;;;;0.93;0.90;;;25.10;71.90;;;;;;6405780;27;20144;-48
2023/09/09 07:25:19;;;;;;;1.00;0.90;;;25.10;71.80;;;;;;6406880;27;20057;-47
2023/09/09 07:28:23;;;;;;;1.15;1.05;;;25.20;71.80;;;;;;6394642;27;20038;-47
2023/09/09 07:31:25;;;;;;;1.10;1.00;;;25.10;71.60;;;;;;6388505;27;20035;-52
2023/09/09 07:34:27;;;;;;;0.93;0.93;;;25.30;71.70;;;;;;6384562;27;20086;-48
2023/09/09 07:37:31;;;;;;;1.25;1.15;;;25.20;71.50;;;;;;6385335;27;20038;-48
2023/09/09 07:40:33;;;;;;;1.10;1.00;;;25.20;71.50;;;;;;6386700;27;20730;-49
2023/09/09 07:43:35;;;;;;;1.13;1.02;;;25.00;71.30;;;;;;6386575;27;20039;-48
2023/09/09 07:46:40;;;;;;;1.15;1.05;;;25.20;71.40;;;;;;6390371;27;20066;-51
2023/09/09 07:49:45;;;;;;;0.90;0.90;;;25.40;71.20;;;;;;6390430;27;20554;-49
2023/09/09 07:52:46;;;;;;;1.13;1.02;;;25.10;71.10;;;;;;6387853;27;20062;-48
2023/09/09 07:55:51;;;;;;;1.17;1.08;;;25.30;71.30;;;;;;6381740;27;20070;-49
2023/09/09 07:58:52;;;;;;;1.13;1.02;;;25.40;71.30;;;;;;6348262;27;20292;-47
2023/09/09 08:01:54;;;;;;;1.05;0.98;;;25.30;71.20;;;;;;6386204;27;20037;-47
2023/09/09 08:04:56;;;;;;;1.20;1.10;;;25.40;71.60;;;;;;6387273;27;20039;-48
2023/09/09 08:07:58;;;;;;;1.17;0.93;;;25.30;71.10;;;;;;6390436;27;20493;-49
2023/09/09 08:11:00;;;;;;;1.40;1.30;;;25.00;70.90;;;;;;6390097;27;20725;-49
2023/09/09 08:14:08;;;;;;;1.55;0.90;;;25.30;71.00;;;;;;6387407;27;20037;-49
2023/09/09 08:17:09;;;;;;;1.10;1.00;;;25.10;70.80;;;;;;6381747;27;20031;-49
2023/09/09 08:20:11;;;;;;;1.30;1.20;;;24.90;70.60;;;;;;6384358;27;20368;-48
2023/09/09 08:23:13;;;;;;;1.52;1.17;;;25.40;70.90;;;;;;6386253;27;20035;-48
2023/09/09 08:26:15;;;;;;;1.92;1.40;;;25.40;71.40;;;;;;6386511;27;20043;-48
2023/09/09 08:29:16;;;;;;;1.23;1.13;;;25.10;71.10;;;;;;6388611;27;20390;-47
2023/09/09 08:32:18;;;;;;;1.20;1.00;;;25.60;71.50;;;;;;6389979;27;20050;-47
2023/09/09 08:35:21;;;;;;;1.40;1.30;;;25.40;71.30;;;;;;6385505;27;20054;-47
2023/09/09 08:38:22;;;;;;;1.20;1.10;;;25.50;71.20;;;;;;6382407;27;20045;-48
2023/09/09 08:41:37;;;;;;;3.42;1.40;;;25.40;71.80;;;;;;6385231;27;20031;-49
2023/09/09 08:44:48;;;;;;;3.25;1.20;;;25.30;70.90;;;;;;6386212;27;20042;-49
2023/09/09 08:47:54;;;;;;;1.70;1.48;;;25.40;70.90;;;;;;6369021;27;20052;-47
2023/09/09 08:51:03;;;;;;;2.30;1.20;;;25.10;70.70;;;;;;6389089;27;20264;-46
2023/09/09 08:54:12;;;;;;;1.13;1.02;;;25.50;70.90;;;;;;6371843;27;20039;-47
2023/09/09 08:57:13;;;;;;;1.45;1.35;;;25.50;70.80;;;;;;6365551;27;20045;-48
2023/09/09 09:00:17;;;;;;;1.88;1.30;;;25.20;70.70;;;;;;6383117;27;20091;-45
2023/09/09 09:03:19;;;;;;;1.73;1.63;;;25.50;70.70;;;;;;6385250;27;20118;-48
2023/09/09 09:06:22;;;;;;;1.63;1.52;;;25.60;70.70;;;;;;6385647;27;20030;-47
2023/09/09 09:09:24;;;;;;;1.40;1.30;;;25.30;70.40;;;;;;6387626;27;20039;-46
2023/09/09 09:12:27;;;;;;;2.53;1.60;;;25.40;70.50;;;;;;6387344;27;20512;-46
2023/09/09 09:15:33;;;;;;;1.48;1.30;;;25.70;70.50;;;;;;6370764;27;20226;-49
2023/09/09 09:18:35;;;;;;;2.17;1.30;;;25.60;70.40;;;;;;6360386;27;20038;-48
2023/09/09 09:21:39;;;;;;;2.08;1.38;;;25.30;70.20;;;;;;6364700;27;20039;-48
2023/09/09 09:24:46;;;;;;;2.13;1.60;;;25.50;70.10;;;;;;6386785;27;20035;-46
2023/09/09 09:27:48;;;;;;;1.42;1.33;;;25.40;69.90;;;;;;6366089;27;20225;-46
2023/09/09 09:30:49;;;;;;;1.33;1.23;;;25.60;70.00;;;;;;6389759;27;20038;-50
2023/09/09 09:33:52;;;;;;;1.95;1.60;;;25.30;69.70;;;;;;6370015;27;20103;-49
2023/09/09 09:36:56;;;;;;;2.33;1.60;;;25.80;69.90;;;;;;6389392;27;20042;-47
2023/09/09 09:39:57;;;;;;;2.08;1.70;;;25.60;69.60;;;;;;6383454;27;20115;-49
2023/09/09 09:42:59;;;;;;;2.03;1.83;;;25.50;69.70;;;;;;6384165;27;20443;-49
2023/09/09 09:46:13;;;;;;;1.38;1.27;;;25.50;69.50;;;;;;6383942;27;20043;-48
2023/09/09 09:49:20;;;;;;;1.50;1.30;;;25.40;69.00;;;;;;6349704;27;20062;-49
2023/09/09 09:52:29;;;;;;;1.63;1.48;;;25.60;69.10;;;;;;6388599;27;20035;-49
2023/09/09 09:55:32;;;;;;;1.88;1.40;;;25.70;68.90;;;;;;6372031;27;20134;-47
2023/09/09 09:58:36;;;;;;;1.35;1.25;;;25.40;68.70;;;;;;6385548;27;20166;-47
2023/09/09 10:01:39;;;;;;;2.15;1.60;;;25.60;68.80;;;;;;6379803;27;20080;-47
2023/09/09 10:04:42;;;;;;;2.28;1.30;;;25.70;68.90;;;;;;6383825;27;20075;-52
2023/09/09 10:07:51;;;;;;;1.77;1.67;;;25.60;68.70;;;;;;6368364;27;20034;-50
2023/09/09 10:11:01;;;;;;;1.98;1.77;;;25.60;68.50;;;;;;6386263;27;20503;-48
2023/09/09 10:14:11;;;;;;;1.50;1.33;;;25.70;69.20;;;;;;6388798;27;20042;-49
2023/09/09 10:17:17;;;;;;;1.50;1.40;;;25.60;68.40;;;;;;6387871;27;20043;-48
2023/09/09 10:20:19;;;;;;;1.80;1.52;;;25.60;68.40;;;;;;6385527;27;20508;-49
2023/09/09 10:23:22;;;;;;;2.22;1.83;;;25.60;68.30;;;;;;6380810;27;20039;-50
2023/09/09 10:26:25;;;;;;;1.50;1.40;;;25.30;68.00;;;;;;6385090;27;20041;-48
2023/09/09 10:29:28;;;;;;;1.40;1.30;;;25.60;68.20;;;;;;6384931;27;20445;-50
2023/09/09 10:32:30;;;;;;;1.80;1.40;;;25.70;68.10;;;;;;6366914;27;20035;-47
2023/09/09 10:35:32;;;;;;;1.80;1.70;;;25.60;68.00;;;;;;6368733;27;20421;-47
2023/09/09 10:38:36;;;;;;;1.30;1.20;;;25.30;67.70;;;;;;6388999;27;20039;-49
2023/09/09 10:41:38;;;;;;;1.73;1.50;;;25.60;67.90;;;;;;6384142;27;20602;-48
2023/09/09 10:44:40;;;;;;;1.70;1.60;;;25.70;67.90;;;;;;6382037;27;20046;-47
2023/09/09 10:47:51;;;;;;;1.70;1.42;;;25.40;67.60;;;;;;6383822;27;20266;-48
2023/09/09 10:50:53;;;;;;;1.50;1.40;;;25.30;67.30;;;;;;6383922;27;20038;-48
2023/09/09 10:54:08;;;;;;;1.60;1.45;;;25.50;67.40;;;;;;6384315;27;20042;-46
2023/09/09 10:57:14;;;;;;;2.00;1.58;;;25.50;67.20;;;;;;6386994;27;20043;-50
2023/09/09 11:00:38;;;;;;;1.50;1.40;;;25.60;67.30;;;;;;6388070;27;20099;-50
2023/09/09 11:03:47;;;;;;;1.30;1.20;;;25.50;66.90;;;;;;6366824;27;20443;-48
2023/09/09 11:07:08;;;;;;;1.73;1.33;;;25.80;67.10;;;;;;6386596;27;20038;-48
2023/09/09 11:10:15;;;;;;;2.30;1.80;;;25.60;66.70;;;;;;6389494;27;20035;-47
2023/09/09 11:13:17;;;;;;;1.58;1.35;;;25.60;66.50;;;;;;6389734;27;20250;-46
2023/09/09 11:16:32;;;;;;;1.42;1.33;;;25.30;66.20;;;;;;6392131;27;20068;-48
2023/09/09 11:19:38;;;;;;;1.42;1.33;;;25.70;66.10;;;;;;6391663;27;20443;-49
2023/09/09 11:22:40;;;;;;;1.63;1.33;;;25.70;66.10;;;;;;6390011;27;20041;-49
2023/09/09 11:25:45;;;;;;;1.42;1.33;;;25.40;65.70;;;;;;6384676;27;20034;-47
2023/09/09 11:28:49;;;;;;;1.50;1.40;;;25.70;65.70;;;;;;6385446;27;20046;-49
2023/09/09 11:31:54;;;;;;;1.60;1.50;;;25.70;65.60;;;;;;6387747;27;20039;-51
2023/09/09 11:34:57;;;;;;;1.67;1.58;;;25.70;65.50;;;;;;6389412;27;20460;-49
2023/09/09 11:38:01;;;;;;;1.60;1.40;;;25.50;65.20;;;;;;6355642;27;20536;-49
2023/09/09 11:41:04;;;;;;;1.98;1.35;;;25.50;64.90;;;;;;6390626;27;20035;-46
2023/09/09 11:44:06;;;;;;;1.80;1.70;;;25.60;64.90;;;;;;6387984;27;20087;-48
2023/09/09 11:47:09;;;;;;;1.90;1.30;;;25.70;64.70;;;;;;6386101;27;20043;-49
2023/09/09 11:50:10;;;;;;;1.45;1.35;;;25.80;64.60;;;;;;6369166;27;20057;-48
2023/09/09 11:53:14;;;;;;;1.67;1.52;;;25.80;64.60;;;;;;6386709;27;20585;-48
2023/09/09 11:56:20;;;;;;;1.52;1.40;;;25.60;64.20;;;;;;6369243;27;20035;-47
2023/09/09 11:59:22;;;;;;;1.60;1.30;;;25.80;64.10;;;;;;6368800;27;20506;-47
2023/09/09 12:02:25;;;;;;;1.45;1.25;;;25.80;64.00;;;;;;6387919;27;20552;-48
2023/09/09 12:05:29;;;;;;;1.40;1.30;;;25.80;63.70;;;;;;6388100;27;20470;-49
2023/09/09 12:08:31;;;;;;;1.60;1.42;;;25.80;63.70;;;;;;6384781;27;20034;-50
2023/09/09 12:11:36;;;;;;;2.47;1.42;;;25.70;63.40;;;;;;6387373;27;20034;-47
2023/09/09 12:14:38;;;;;;;1.77;1.42;;;25.90;63.40;;;;;;6387598;27;20489;-48
2023/09/09 12:17:40;;;;;;;1.50;1.40;;;25.90;63.30;;;;;;6388950;27;20050;-49
2023/09/09 12:21:00;;;;;;;1.70;1.60;;;25.80;63.10;;;;;;6391178;27;20254;-49
2023/09/09 12:24:01;;;;;;;1.60;1.50;;;25.80;62.80;;;;;;6391250;27;20070;-47
2023/09/09 12:27:06;;;;;;;1.45;1.35;;;25.50;63.20;;;;;;6383896;27;20276;-49
2023/09/09 12:30:31;;;;;;;1.70;1.30;;;25.90;62.50;;;;;;6384527;27;20117;-46
2023/09/09 12:33:45;;;;;;;1.50;1.40;;;25.80;62.00;;;;;;6388000;27;20038;-46
2023/09/09 12:36:47;;;;;;;2.03;1.50;;;25.80;61.80;;;;;;6370062;27;20039;-49
2023/09/09 12:40:04;;;;;;;1.63;1.40;;;25.60;61.60;;;;;;6390724;27;20038;-49
2023/09/09 12:43:11;;;;;;;1.40;1.23;;;25.90;61.50;;;;;;6390828;27;20524;-48
2023/09/09 12:46:14;;;;;;;1.85;1.40;;;25.80;61.30;;;;;;6385754;27;20035;-47
2023/09/09 12:49:20;;;;;;;2.15;1.48;;;25.80;61.10;;;;;;6362373;27;20457;-47
2023/09/09 12:52:22;;;;;;;1.27;1.17;;;25.90;61.40;;;;;;6361379;27;20035;-53
2023/09/09 12:55:23;;;;;;;1.60;1.50;;;25.80;60.70;;;;;;6367271;27;20538;-51
2023/09/09 12:58:25;;;;;;;1.48;1.38;;;25.90;60.60;;;;;;6375675;27;20049;-49
2023/09/09 13:01:30;;;;;;;1.30;1.20;;;25.70;60.20;;;;;;6377729;27;20050;-47
2023/09/09 13:04:31;;;;;;;1.50;1.33;;;25.90;60.10;;;;;;6385393;27;20041;-51
2023/09/09 13:07:34;;;;;;;1.98;1.52;;;25.50;59.60;;;;;;6380993;27;20382;-47
2023/09/09 13:10:35;;;;;;;1.52;1.42;;;25.90;59.60;;;;;;6381086;27;20413;-49
2023/09/09 13:13:39;;;;;;;1.50;1.40;;;26.00;59.40;;;;;;6383262;27;20030;-48
2023/09/09 13:16:42;;;;;;;2.30;0.90;;;25.70;58.80;;;;;;6383522;27;20126;-48
2023/09/09 13:19:46;;;;;;;1.30;1.20;;;25.80;58.60;;;;;;6381809;27;20031;-48
2023/09/09 13:22:47;;;;;;;1.35;1.25;;;25.90;58.40;;;;;;6389719;27;20031;-46
2023/09/09 13:25:49;;;;;;;1.40;1.30;;;25.80;57.90;;;;;;6388781;27;20234;-47
2023/09/09 13:28:51;;;;;;;1.50;1.25;;;25.70;57.60;;;;;;6381323;27;20477;-46
2023/09/09 13:31:53;;;;;;;1.40;1.30;;;25.80;58.20;;;;;;6382977;27;20056;-47
2023/09/09 13:34:55;;;;;;;1.50;1.20;;;25.90;57.10;;;;;;6384693;27;20091;-48
2023/09/09 13:37:56;;;;;;;1.35;1.17;;;25.80;56.60;;;;;;6386209;27;20063;-49
2023/09/09 13:40:59;;;;;;;1.70;1.25;;;25.90;56.40;;;;;;6379414;27;20042;-48
2023/09/09 13:44:01;;;;;;;1.15;1.00;;;25.80;56.00;;;;;;6388885;27;20562;-48
2023/09/09 13:47:02;;;;;;;0.95;0.88;;;26.00;55.90;;;;;;6388779;27;20462;-49
2023/09/09 13:50:06;;;;;;;1.00;0.90;;;25.80;55.40;;;;;;6385502;27;20034;-48
2023/09/09 13:53:07;;;;;;;1.48;0.98;;;25.90;55.20;;;;;;6359385;27;20338;-47
2023/09/09 13:56:08;;;;;;;0.93;0.82;;;25.80;55.00;;;;;;6383822;27;20034;-48
2023/09/09 13:59:15;;;;;;;1.33;1.00;;;25.50;54.50;;;;;;6384259;27;20568;-49
2023/09/09 14:02:18;;;;;;;0.88;0.85;;;26.00;54.40;;;;;;6381339;27;20046;-50
2023/09/09 14:05:22;;;;;;;1.27;1.10;;;25.90;54.10;;;;;;6384578;27;20039;-48
2023/09/09 14:08:24;;;;;;;1.33;1.05;;;25.90;53.50;;;;;;6387943;27;20092;-50
2023/09/09 14:11:25;;;;;;;1.25;1.15;;;25.60;53.00;;;;;;6378399;27;20039;-47
2023/09/09 14:14:27;;;;;;;1.38;1.08;;;25.70;52.70;;;;;;6355059;27;20035;-50
2023/09/09 14:17:29;;;;;;;1.00;0.73;;;25.90;52.60;;;;;;6381483;27;20030;-49
2023/09/09 14:20:31;;;;;;;1.02;0.80;;;25.90;52.30;;;;;;6382861;27;20038;-49
2023/09/09 14:23:36;;;;;;;1.05;0.82;;;26.00;52.10;;;;;;6385602;27;20285;-47
2023/09/09 14:26:37;;;;;;;1.08;0.90;;;25.90;52.40;;;;;;6379261;27;20253;-48
2023/09/09 14:29:41;;;;;;;1.25;0.73;;;25.80;51.50;;;;;;6387328;27;20636;-47
2023/09/09 14:32:42;;;;;;;1.00;0.85;;;26.00;51.30;;;;;;6383115;27;20035;-48
2023/09/09 14:35:44;;;;;;;0.95;0.73;;;25.90;51.00;;;;;;6380840;27;20039;-46
2023/09/09 14:38:46;;;;;;;0.80;0.70;;;25.80;50.70;;;;;;6380744;27;20110;-48
2023/09/09 14:41:48;;;;;;;0.70;0.70;;;26.00;50.50;;;;;;6389090;27;20031;-49
2023/09/09 14:44:50;;;;;;;0.80;0.80;;;25.50;49.80;;;;;;6390884;27;20157;-49
2023/09/09 14:47:53;;;;;;;0.73;0.60;;;25.90;50.10;;;;;;6385639;27;20046;-50
2023/09/09 14:50:55;;;;;;;0.80;0.80;;;26.00;50.40;;;;;;6390169;27;20047;-47
2023/09/09 14:53:57;;;;;;;0.70;0.60;;;25.80;49.70;;;;;;6384710;27;20049;-48
2023/09/09 14:57:01;;;;;;;0.80;0.65;;;25.90;49.50;;;;;;6385233;27;20046;-49
2023/09/09 15:00:07;;;;;;;0.77;0.60;;;26.00;49.30;;;;;;6382054;27;20035;-48
2023/09/09 15:03:09;;;;;;;0.70;0.70;;;25.70;48.90;;;;;;6386906;27;20062;-52
2023/09/09 15:06:10;;;;;;;0.90;0.60;;;26.80;50.00;;;;;;6384380;27;20087;-49
2023/09/09 15:09:11;;;;;;;1.15;0.55;;;25.90;48.70;;;;;;6390088;27;20252;-46
2023/09/09 15:12:13;;;;;;;0.70;0.68;;;25.80;48.40;;;;;;6382098;27;20226;-50
2023/09/09 15:15:15;;;;;;;0.80;0.70;;;25.80;48.30;;;;;;6387449;27;20042;-48
2023/09/09 15:18:17;;;;;;;0.80;0.70;;;25.90;48.10;;;;;;6384172;27;20039;-47
2023/09/09 15:21:19;;;;;;;0.70;0.60;;;25.80;48.30;;;;;;6386122;27;20479;-51
2023/09/09 15:24:22;;;;;;;0.75;0.65;;;26.00;47.90;;;;;;6383718;27;20126;-47
2023/09/09 15:27:23;;;;;;;0.65;0.65;;;25.50;47.50;;;;;;6386816;27;20043;-50
2023/09/09 15:30:25;;;;;;;0.73;0.63;;;25.90;47.80;;;;;;6390909;27;20065;-48
2023/09/09 15:33:28;;;;;;;1.10;0.73;;;25.90;47.60;;;;;;6383652;27;20038;-47
2023/09/09 15:36:30;;;;;;;0.70;0.70;;;25.60;47.40;;;;;;6383755;27;20045;-49
2023/09/09 15:39:31;;;;;;;1.17;1.00;;;25.80;47.40;;;;;;6384713;27;20043;-48
2023/09/09 15:42:40;;;;;;;0.75;0.75;;;25.90;47.40;;;;;;6387262;27;20401;-48
2023/09/09 15:45:43;;;;;;;0.93;0.63;;;25.90;47.10;;;;;;6379964;27;20046;-47
2023/09/09 15:48:46;;;;;;;0.60;0.60;;;25.80;47.10;;;;;;6390809;27;20034;-51
2023/09/09 15:51:48;;;;;;;0.90;0.57;;;26.00;47.10;;;;;;6391325;27;20039;-46
2023/09/09 15:54:49;;;;;;;0.95;0.68;;;25.90;47.10;;;;;;6386575;27;20189;-52
2023/09/09 15:57:51;;;;;;;0.77;0.60;;;26.00;47.10;;;;;;6369533;27;20049;-47
2023/09/09 16:00:53;;;;;;;0.70;0.70;;;26.00;47.10;;;;;;6375878;27;20315;-48
2023/09/09 16:03:55;;;;;;;0.93;0.70;;;25.90;46.90;;;;;;6380904;27;20026;-50
2023/09/09 16:06:57;;;;;;;0.57;0.50;;;25.90;46.90;;;;;;6383293;27;20049;-48
2023/09/09 16:09:58;;;;;;;0.80;0.70;;;25.90;46.80;;;;;;6386740;27;20035;-49
2023/09/09 16:13:02;;;;;;;0.73;0.60;;;25.80;46.80;;;;;;6390780;27;20035;-48
2023/09/09 16:16:06;;;;;;;0.90;0.80;;;25.90;46.70;;;;;;6389975;27;20031;-52
2023/09/09 16:19:09;;;;;;;0.80;0.70;;;26.00;46.70;;;;;;6379137;27;20039;-50
2023/09/09 16:22:13;;;;;;;1.27;0.63;;;26.00;47.10;;;;;;6384188;27;20470;-49
2023/09/09 16:25:14;;;;;;;0.98;0.63;;;24.90;46.10;;;;;;6386614;27;20035;-48
2023/09/09 16:28:18;;;;;;;0.70;0.70;;;25.90;46.70;;;;;;6385765;27;20099;-47
2023/09/09 16:31:21;;;;;;;1.65;0.77;;;25.90;46.70;;;;;;6381648;27;20632;-48
2023/09/09 16:34:23;;;;;;;0.90;0.80;;;25.90;46.70;;;;;;6390052;27;20233;-48
2023/09/09 16:37:25;;;;;;;0.75;0.63;;;25.90;46.80;;;;;;6388947;27;20047;-46
2023/09/09 16:40:26;;;;;;;0.90;0.70;;;26.00;46.80;;;;;;6383057;27;20038;-49
2023/09/09 16:43:28;;;;;;;0.50;0.50;;;25.60;46.50;;;;;;6380597;27;20043;-49
2023/09/09 16:46:33;;;;;;;0.70;0.60;;;26.00;46.80;;;;;;6386029;27;20254;-48
2023/09/09 16:49:35;;;;;;;0.77;0.65;;;26.00;46.30;;;;;;6386248;27;20039;-49
2023/09/09 16:52:37;;;;;;;0.80;0.63;;;26.00;46.80;;;;;;6381847;27;20058;-46
2023/09/09 16:55:38;;;;;;;1.25;0.80;;;25.80;46.70;;;;;;6385933;27;20562;-46
2023/09/09 16:58:40;;;;;;;0.70;0.60;;;26.00;47.00;;;;;;6387155;27;20512;-49
2023/09/09 17:01:43;;;;;;;0.57;0.57;;;26.00;47.10;;;;;;6382003;27;20572;-51
2023/09/09 17:04:45;;;;;;;1.35;0.60;;;25.90;47.00;;;;;;6378785;27;20074;-48
2023/09/09 17:07:47;;;;;;;1.10;0.70;;;25.90;47.20;;;;;;6385486;27;20057;-47
2023/09/09 17:10:51;;;;;;;0.65;0.65;;;26.00;47.30;;;;;;6386686;27;20039;-48
2023/09/09 17:13:53;;;;;;;1.20;0.90;;;25.60;47.10;;;;;;6389153;27;20038;-50
2023/09/09 17:16:58;;;;;;;0.90;0.80;;;25.90;47.40;;;;;;6379983;27;20035;-49
2023/09/09 17:20:00;;;;;;;0.80;0.55;;;25.70;47.20;;;;;;6383466;27;20152;-48
2023/09/09 17:23:02;;;;;;;1.15;0.60;;;25.90;47.40;;;;;;6383078;27;20031;-48
2023/09/09 17:26:05;;;;;;;0.80;0.80;;;25.90;47.50;;;;;;6382511;27;20291;-47
2023/09/09 17:29:10;;;;;;;1.73;1.05;;;25.50;47.30;;;;;;6381401;27;20119;-49
2023/09/09 17:32:12;;;;;;;0.80;0.70;;;26.00;47.80;;;;;;6386516;27;20070;-51
2023/09/09 17:35:14;;;;;;;1.00;0.70;;;25.90;47.70;;;;;;6387555;27;20406;-48
2023/09/09 17:38:15;;;;;;;0.65;0.60;;;26.00;48.00;;;;;;6381274;27;20050;-47
2023/09/09 17:41:17;;;;;;;0.90;0.68;;;25.90;48.10;;;;;;6386000;27;20098;-47
2023/09/09 17:44:22;;;;;;;0.93;0.80;;;25.90;48.20;;;;;;6381876;27;20035;-48
2023/09/09 17:47:24;;;;;;;0.60;0.55;;;25.80;48.30;;;;;;6383653;27;20035;-50
2023/09/09 17:50:25;;;;;;;0.70;0.70;;;25.90;48.50;;;;;;6377451;27;20039;-47
2023/09/09 17:53:27;;;;;;;0.95;0.80;;;25.90;48.80;;;;;;6386955;27;20038;-47
2023/09/09 17:56:28;;;;;;;1.08;0.70;;;25.70;49.00;;;;;;6388069;27;20035;-48
2023/09/09 17:59:30;;;;;;;1.60;0.80;;;25.90;49.20;;;;;;6388159;27;20574;-46
2023/09/09 18:02:35;;;;;;;0.80;0.80;;;25.80;49.40;;;;;;6376823;27;20378;-48
2023/09/09 18:05:36;;;;;;;1.25;0.80;;;25.40;49.30;;;;;;6380467;27;20037;-49
2023/09/09 18:08:38;;;;;;;1.00;0.90;;;25.70;49.80;;;;;;6384834;27;20113;-48
2023/09/09 18:11:42;;;;;;;1.13;0.70;;;25.60;49.90;;;;;;6381807;27;20043;-46
2023/09/09 18:14:44;;;;;;;1.00;0.80;;;25.70;50.50;;;;;;6365669;27;20441;-49
2023/09/09 18:17:46;;;;;;;0.63;0.60;;;25.70;50.20;;;;;;6388466;27;20326;-46
2023/09/09 18:20:50;;;;;;;0.80;0.70;;;25.50;50.30;;;;;;6388478;27;20049;-48
2023/09/09 18:23:52;;;;;;;0.80;0.70;;;25.50;50.40;;;;;;6378580;27;20053;-48
2023/09/09 18:26:55;;;;;;;1.45;0.80;;;25.70;50.80;;;;;;6381718;27;20038;-47
2023/09/09 18:29:59;;;;;;;0.90;0.80;;;25.40;50.60;;;;;;6384368;27;20042;-47
2023/09/09 18:33:01;;;;;;;1.02;0.88;;;25.70;50.90;;;;;;6385513;27;20042;-48
2023/09/09 18:36:03;;;;;;;1.00;0.80;;;25.50;50.90;;;;;;6379766;27;20227;-48
2023/09/09 18:39:05;;;;;;;1.10;0.90;;;25.60;51.10;;;;;;6388413;27;20043;-46
2023/09/09 18:42:06;;;;;;;0.90;0.80;;;25.60;51.40;;;;;;6387806;27;20064;-48
2023/09/09 18:45:11;;;;;;;0.75;0.65;;;25.50;51.30;;;;;;6382573;27;20033;-48
2023/09/09 18:48:18;;;;;;;1.10;0.98;;;25.40;51.20;;;;;;6371683;27;20711;-48
2023/09/09 18:51:20;;;;;;;1.30;1.00;;;25.00;51.10;;;;;;6382462;27;20038;-48
2023/09/09 18:54:22;;;;;;;1.50;1.25;;;25.50;51.90;;;;;;6385202;27;20043;-50
2023/09/09 18:57:28;;;;;;;1.95;1.50;;;25.10;51.90;;;;;;6378575;27;20254;-48
2023/09/09 19:00:29;;;;;;;1.73;1.45;;;25.50;52.40;;;;;;6386633;27;20498;-49
2023/09/09 19:03:31;;;;;;;1.70;1.27;;;25.30;52.30;;;;;;6388680;27;20540;-47
2023/09/09 19:06:33;;;;;;;2.00;1.60;;;25.40;52.50;;;;;;6383701;27;20031;-47
2023/09/09 19:09:35;;;;;;;1.60;1.38;;;25.50;52.80;;;;;;6377301;27;20035;-48
2023/09/09 19:12:37;;;;;;;2.00;1.58;;;25.30;52.90;;;;;;6386602;27;20039;-46
2023/09/09 19:15:38;;;;;;;1.50;1.40;;;25.30;53.10;;;;;;6384465;27;20027;-49
2023/09/09 19:18:41;;;;;;;1.60;1.48;;;24.80;53.00;;;;;;6368148;27;20042;-46
2023/09/09 19:21:43;;;;;;;1.50;1.20;;;25.40;53.50;;;;;;6381524;27;20035;-47
2023/09/09 19:24:45;;;;;;;1.48;1.38;;;25.30;53.50;;;;;;6391427;27;20038;-50
2023/09/09 19:27:47;;;;;;;1.92;1.40;;;25.30;53.70;;;;;;6387424;27;20043;-48
2023/09/09 19:30:49;;;;;;;1.40;1.30;;;25.10;53.60;;;;;;6385720;27;20062;-50
2023/09/09 19:33:52;;;;;;;1.42;1.33;;;25.50;54.00;;;;;;6385385;27;20049;-47
2023/09/09 19:36:57;;;;;;;1.48;1.27;;;25.50;54.00;;;;;;6390692;27;20035;-50
2023/09/09 19:39:59;;;;;;;1.40;1.20;;;25.20;53.90;;;;;;6393294;27;20035;-48
2023/09/09 19:43:02;;;;;;;2.00;1.60;;;24.90;53.70;;;;;;6349977;27;20668;-48
2023/09/09 19:46:05;;;;;;;1.80;1.48;;;25.10;53.90;;;;;;6391360;27;20083;-49
2023/09/09 19:49:08;;;;;;;1.23;1.10;;;25.10;54.40;;;;;;6381691;27;20171;-47
2023/09/09 19:52:10;;;;;;;1.65;1.40;;;25.50;55.10;;;;;;6388031;27;20136;-50
2023/09/09 19:55:12;;;;;;;1.60;1.50;;;25.40;54.50;;;;;;6383584;27;20728;-50
2023/09/09 19:58:13;;;;;;;1.17;1.05;;;25.30;54.60;;;;;;6390388;27;20786;-50
2023/09/09 20:01:14;;;;;;;1.60;1.27;;;25.30;54.70;;;;;;6392145;27;20046;-49
2023/09/09 20:04:17;;;;;;;1.45;1.35;;;25.30;54.80;;;;;;6391946;27;20125;-49
2023/09/09 20:07:18;;;;;;;1.65;1.30;;;25.30;54.80;;;;;;6384439;27;20042;-48
2023/09/09 20:10:20;;;;;;;1.38;1.27;;;25.40;55.10;;;;;;6391876;27;20696;-49
2023/09/09 20:13:22;;;;;;;1.45;1.30;;;25.30;54.90;;;;;;6392706;27;20035;-51
2023/09/09 20:16:24;;;;;;;1.30;1.20;;;25.40;54.90;;;;;;6387126;27;20045;-47
2023/09/09 20:19:26;;;;;;;1.05;0.95;;;25.30;55.30;;;;;;6389322;27;20027;-50
2023/09/09 20:22:28;;;;;;;1.20;1.10;;;25.30;54.90;;;;;;6391979;27;20035;-48
2023/09/09 20:25:32;;;;;;;1.52;1.15;;;25.30;54.90;;;;;;6391218;27;20048;-47
2023/09/09 20:28:34;;;;;;;1.15;1.02;;;25.60;55.10;;;;;;6380500;27;20038;-48
2023/09/09 20:31:36;;;;;;;1.30;0.93;;;25.60;55.10;;;;;;6392321;27;20126;-50
2023/09/09 20:34:41;;;;;;;0.98;0.80;;;24.90;54.60;;;;;;6391816;27;20038;-47
2023/09/09 20:37:44;;;;;;;1.33;1.23;;;25.40;54.90;;;;;;6357507;27;20042;-49
2023/09/09 20:40:46;;;;;;;1.17;1.08;;;25.40;55.00;;;;;;6383862;27;20071;-51
2023/09/09 20:43:48;;;;;;;1.35;0.98;;;25.20;54.90;;;;;;6376396;27;20031;-52
2023/09/09 20:46:49;;;;;;;1.10;1.00;;;25.30;55.00;;;;;;6392693;27;20058;-49
2023/09/09 20:49:52;;;;;;;1.73;1.00;;;25.20;54.90;;;;;;6391368;27;20053;-48
2023/09/09 20:52:56;;;;;;;1.23;1.10;;;25.30;55.10;;;;;;6384646;27;20118;-48
2023/09/09 20:55:57;;;;;;;1.55;1.05;;;24.90;54.80;;;;;;6391926;27;20441;-48
2023/09/09 20:59:03;;;;;;;1.30;1.15;;;25.30;55.20;;;;;;6392199;27;20412;-50
2023/09/09 21:02:05;;;;;;;1.25;1.10;;;25.10;54.90;;;;;;6386102;27;20065;-48
2023/09/09 21:05:08;;;;;;;1.70;1.40;;;25.20;55.20;;;;;;6370697;27;20530;-51
2023/09/09 21:08:09;;;;;;;1.40;1.30;;;25.20;55.20;;;;;;6392564;27;20042;-50
2023/09/09 21:11:11;;;;;;;1.35;1.08;;;25.20;55.60;;;;;;6393027;27;20091;-46
2023/09/09 21:14:12;;;;;;;1.23;1.13;;;25.20;55.40;;;;;;6384678;27;20031;-51
2023/09/09 21:17:14;;;;;;;1.60;1.33;;;25.20;55.40;;;;;;6391942;27;20038;-49
2023/09/09 21:20:16;;;;;;;2.22;1.45;;;25.30;55.60;;;;;;6391511;27;20050;-47
2023/09/09 21:23:18;;;;;;;1.92;1.50;;;25.30;55.60;;;;;;6391737;27;20049;-50
2023/09/09 21:26:20;;;;;;;1.70;1.42;;;25.20;55.60;;;;;;6382731;27;20035;-46
2023/09/09 21:29:21;;;;;;;1.92;1.67;;;25.30;55.70;;;;;;6391557;27;20106;-50
2023/09/09 21:32:23;;;;;;;1.60;1.23;;;25.30;55.70;;;;;;6389046;27;20087;-50
2023/09/09 21:35:25;;;;;;;1.85;1.42;;;25.10;56.70;;;;;;6384923;27;20113;-47
2023/09/09 21:38:27;;;;;;;1.75;1.60;;;25.30;56.20;;;;;;6366599;27;20077;-51
2023/09/09 21:41:28;;;;;;;2.10;1.38;;;25.20;56.00;;;;;;6391269;27;20038;-51
2023/09/09 21:44:30;;;;;;;1.50;1.27;;;25.40;56.20;;;;;;6390790;27;20772;-50
2023/09/09 21:47:31;;;;;;;2.60;1.75;;;25.50;56.40;;;;;;6364304;27;20707;-47
2023/09/09 21:50:35;;;;;;;1.75;1.52;;;25.30;56.30;;;;;;6382140;27;20031;-51
2023/09/09 21:53:36;;;;;;;2.08;1.75;;;25.10;56.30;;;;;;6389558;27;20031;-50
2023/09/09 21:56:39;;;;;;;3.28;1.92;;;25.30;56.50;;;;;;6389682;27;20035;-47
2023/09/09 21:59:41;;;;;;;1.75;1.65;;;25.40;57.30;;;;;;6381622;27;20043;-50
2023/09/09 22:02:42;;;;;;;2.17;1.60;;;25.40;56.90;;;;;;6389065;27;20468;-47
2023/09/09 22:05:44;;;;;;;1.70;1.60;;;25.30;57.00;;;;;;6390353;27;20039;-49
2023/09/09 22:08:46;;;;;;;1.50;1.40;;;24.90;56.80;;;;;;6390722;27;20066;-48
2023/09/09 22:11:47;;;;;;;1.73;1.63;;;25.30;57.20;;;;;;6383080;27;20520;-49